createdAt,value
2022-12-04T00:00:15.594Z,34
2022-12-04T00:05:51.551Z,63
2022-12-04T00:11:35.226Z,36
2022-12-04T00:17:10.585Z,58
2022-12-04T00:23:06.378Z,68
2022-12-04T00:28:44.914Z,41
2022-12-04T00:34:23.380Z,32
2022-12-04T00:40:04.066Z,40
2022-12-04T00:45:49.529Z,24
2022-12-04T00:51:24.571Z,16
2022-12-04T00:57:03.659Z,24
2022-12-04T01:02:45.781Z,14
2022-12-04T01:08:23.958Z,12
2022-12-04T01:14:07.391Z,8
2022-12-04T01:19:42.452Z,26
2022-12-04T01:25:57.635Z,78
2022-12-04T01:31:34.710Z,58
2022-12-04T01:37:11.890Z,30
2022-12-04T01:42:53.550Z,50
2022-12-04T01:48:50.234Z,39
2022-12-04T01:54:22.694Z,26
2022-12-04T01:59:59.139Z,20
2022-12-04T02:05:34.714Z,28
2022-12-04T02:11:11.412Z,24
2022-12-04T02:16:54.181Z,8
2022-12-04T02:22:34.409Z,8
2022-12-04T02:28:12.218Z,18
2022-12-04T02:33:56.025Z,16
2022-12-04T02:39:35.451Z,30
2022-12-04T02:45:10.809Z,16
2022-12-04T02:50:47.350Z,6
2022-12-04T02:56:22.790Z,16
2022-12-04T03:02:01.259Z,4
2022-12-04T03:07:36.680Z,12
2022-12-04T03:13:12.818Z,16
2022-12-04T03:19:01.991Z,6
2022-12-04T03:25:03.627Z,2
2022-12-04T03:30:53.966Z,8
2022-12-04T03:36:42.517Z,6
2022-12-04T03:42:48.703Z,21
2022-12-04T03:48:45.889Z,18
2022-12-04T03:54:27.458Z,12
2022-12-04T04:00:18.841Z,6
2022-12-04T04:05:58.393Z,24
2022-12-04T04:11:37.896Z,8
2022-12-04T04:17:20.474Z,8
2022-12-04T04:23:03.252Z,20
2022-12-04T04:28:48.475Z,10
2022-12-04T04:34:26.568Z,6
2022-12-04T04:40:01.842Z,10
2022-12-04T04:45:36.631Z,8
2022-12-04T04:51:14.553Z,4
2022-12-04T04:56:49.525Z,10
2022-12-04T05:02:55.122Z,8
2022-12-04T05:08:44.320Z,16
2022-12-04T05:14:44.414Z,12
2022-12-04T05:20:38.446Z,6
2022-12-04T05:26:26.705Z,4
2022-12-04T05:32:12.313Z,7
2022-12-04T05:37:55.288Z,8
2022-12-04T05:43:32.264Z,8
2022-12-04T05:49:29.003Z,12
2022-12-04T05:55:10.097Z,6
2022-12-04T06:00:53.257Z,12
2022-12-04T06:06:28.241Z,2
2022-12-04T06:12:10.952Z,4
2022-12-04T06:17:52.709Z,4
2022-12-04T06:23:35.171Z,2
2022-12-04T06:29:30.395Z,2
2022-12-04T06:35:08.272Z,8
2022-12-04T06:40:56.607Z,2
2022-12-04T06:46:55.968Z,10
2022-12-04T06:52:28.774Z,8
2022-12-04T06:58:03.746Z,4
2022-12-04T07:03:38.666Z,4
2022-12-04T07:09:13.561Z,4
2022-12-04T07:14:49.181Z,6
2022-12-04T07:20:24.393Z,0
2022-12-04T07:25:59.207Z,0
2022-12-04T07:32:23.948Z,8
2022-12-04T07:38:09.104Z,4
2022-12-04T07:43:55.149Z,4
2022-12-04T07:49:40.714Z,12
2022-12-04T07:55:24.368Z,8
2022-12-04T08:01:33.632Z,0
2022-12-04T08:07:12.456Z,6
2022-12-04T08:12:47.235Z,4
2022-12-04T08:18:26.876Z,20
2022-12-04T08:24:13.204Z,26
2022-12-04T08:29:58.465Z,16
2022-12-04T08:36:03.158Z,14
2022-12-04T08:41:38.523Z,22
2022-12-04T08:47:16.927Z,16
2022-12-04T08:52:55.281Z,18
2022-12-04T08:58:43.161Z,30
2022-12-04T09:04:23.322Z,14
2022-12-04T09:10:35.440Z,14
2022-12-04T09:16:35.327Z,24
2022-12-04T09:22:10.634Z,32
2022-12-04T09:28:14.650Z,22
2022-12-04T09:34:12.280Z,36
2022-12-04T09:39:56.724Z,22
2022-12-04T09:45:46.251Z,30
2022-12-04T09:51:29.004Z,14
2022-12-04T09:57:17.053Z,30
2022-12-04T10:02:53.796Z,18
2022-12-04T10:08:31.420Z,22
2022-12-04T10:14:23.558Z,8
2022-12-04T10:20:08.298Z,20
2022-12-04T10:25:55.618Z,2
2022-12-04T10:31:48.199Z,6
2022-12-04T10:37:39.144Z,8
2022-12-04T10:43:17.455Z,18
2022-12-04T10:48:56.021Z,16
2022-12-04T10:54:45.092Z,6
2022-12-04T11:00:21.734Z,6
2022-12-04T11:06:18.415Z,14
2022-12-04T11:12:07.880Z,17
2022-12-04T11:17:43.588Z,6
2022-12-04T11:23:18.965Z,4
2022-12-04T11:28:58.700Z,4
2022-12-04T11:34:42.276Z,6
2022-12-04T11:40:17.575Z,8
2022-12-04T11:45:53.306Z,4
2022-12-04T11:51:37.212Z,6
2022-12-04T11:57:23.615Z,6
2022-12-04T12:03:13.125Z,4
2022-12-04T12:08:56.727Z,0
2022-12-04T12:14:42.070Z,6
2022-12-04T12:20:17.366Z,2
2022-12-04T12:25:54.262Z,7
2022-12-04T12:31:30.931Z,2
2022-12-04T12:37:06.547Z,4
2022-12-04T12:42:43.094Z,0
2022-12-04T12:48:40.286Z,4
2022-12-04T12:54:15.392Z,5
2022-12-04T12:59:50.691Z,6
2022-12-04T13:05:26.235Z,2
2022-12-04T13:11:09.718Z,2
2022-12-04T13:17:19.364Z,6
2022-12-04T13:23:04.780Z,4
2022-12-04T13:28:42.694Z,8
2022-12-04T13:34:20.094Z,0
2022-12-04T13:40:25.598Z,4
2022-12-04T13:46:02.030Z,0
2022-12-04T13:51:43.351Z,6
2022-12-04T13:57:19.382Z,6
2022-12-04T14:02:56.133Z,0
2022-12-04T14:08:45.247Z,4
2022-12-04T14:14:31.676Z,2
2022-12-04T14:20:09.061Z,6
2022-12-04T14:25:45.842Z,6
2022-12-04T14:32:47.414Z,2
2022-12-04T14:38:59.858Z,0
2022-12-04T14:44:38.240Z,2
2022-12-04T14:50:28.325Z,4
2022-12-04T14:56:22.489Z,10
2022-12-04T15:02:01.025Z,8
2022-12-04T15:07:40.764Z,0
2022-12-04T15:13:26.439Z,8
2022-12-04T15:19:14.856Z,2
2022-12-04T15:24:55.174Z,4
2022-12-04T15:30:31.389Z,8
2022-12-04T15:36:29.641Z,0
2022-12-04T15:42:12.796Z,2
2022-12-04T15:48:09.735Z,6
2022-12-04T15:53:42.287Z,0
2022-12-04T15:59:22.433Z,0
2022-12-04T16:04:59.725Z,2
2022-12-04T16:10:35.493Z,2
2022-12-04T16:16:11.447Z,6
2022-12-04T16:21:46.995Z,2
2022-12-04T16:27:24.550Z,4
2022-12-04T16:33:00.288Z,6
2022-12-04T16:38:36.359Z,8
2022-12-04T16:44:11.643Z,2
2022-12-04T16:49:51.847Z,2
2022-12-04T16:55:27.123Z,10
2022-12-04T17:01:09.089Z,2
2022-12-04T17:06:44.802Z,6
2022-12-04T17:13:04.393Z,10
2022-12-04T17:18:44.399Z,4
2022-12-04T17:24:28.180Z,6
2022-12-04T17:30:11.693Z,16
2022-12-04T17:36:03.959Z,38
2022-12-04T17:41:40.111Z,18
2022-12-04T17:47:40.621Z,28
2022-12-04T17:53:13.708Z,34
2022-12-04T17:58:55.797Z,68
2022-12-04T18:04:32.070Z,58
2022-12-04T18:10:10.540Z,34
2022-12-04T18:16:20.540Z,48
2022-12-04T18:21:59.912Z,24
2022-12-04T18:27:43.356Z,14
2022-12-04T18:33:41.087Z,12
2022-12-04T18:39:16.782Z,8
2022-12-04T18:44:51.623Z,12
2022-12-04T18:50:53.811Z,16
2022-12-04T18:56:32.595Z,8
2022-12-04T19:02:09.055Z,54
2022-12-04T19:07:45.143Z,56
2022-12-04T19:13:21.181Z,48
2022-12-04T19:18:56.367Z,66
2022-12-04T19:24:31.411Z,61
2022-12-04T19:30:06.219Z,30
2022-12-04T19:35:41.424Z,14
2022-12-04T19:41:16.510Z,14
2022-12-04T19:46:52.047Z,16
2022-12-04T19:52:27.359Z,26
2022-12-04T19:58:06.637Z,28
2022-12-04T20:03:49.631Z,18
2022-12-04T20:09:30.086Z,22
2022-12-04T20:15:05.490Z,40
2022-12-04T20:20:44.631Z,42
2022-12-04T20:26:20.149Z,32
2022-12-04T20:31:55.421Z,26
2022-12-04T20:37:30.604Z,34
2022-12-04T20:43:06.599Z,30
2022-12-04T20:49:03.794Z,40
2022-12-04T20:54:51.535Z,34
2022-12-04T21:00:51.296Z,44
2022-12-04T21:07:12.285Z,59
2022-12-04T21:12:49.745Z,49
2022-12-04T21:18:25.203Z,36
2022-12-04T21:24:00.234Z,40
2022-12-04T21:29:42.870Z,36
2022-12-04T21:35:23.426Z,38
2022-12-04T21:40:58.766Z,24
2022-12-04T21:46:57.591Z,46
2022-12-04T21:52:32.564Z,22
2022-12-04T21:58:28.579Z,38
2022-12-04T22:04:07.801Z,26
2022-12-04T22:09:46.061Z,33
2022-12-04T22:15:21.000Z,28
2022-12-04T22:20:56.233Z,38
2022-12-04T22:26:31.934Z,34
2022-12-04T22:32:10.113Z,54
2022-12-04T22:37:54.840Z,61
2022-12-04T22:43:41.746Z,97
2022-12-04T22:49:38.555Z,36
2022-12-04T22:55:11.730Z,16
2022-12-04T23:00:47.960Z,22
2022-12-04T23:06:22.683Z,30
2022-12-04T23:11:57.958Z,16
2022-12-04T23:17:33.513Z,12
2022-12-04T23:23:30.721Z,34
2022-12-04T23:29:57.735Z,24
2022-12-04T23:35:36.391Z,39
2022-12-04T23:41:28.705Z,26
2022-12-04T23:47:25.687Z,52
2022-12-04T23:53:08.900Z,32
2022-12-04T23:58:43.770Z,54
